Time;durP1;ratioP1;P1;durP2;ratioP2;P2;SDS_P1;SDS_P2;PMS_P1;PMS_P2;Temp;Humidity;BMP_temperature;BMP_pressure;BME280_temperature;BME280_humidity;BME280_pressure;Samples;Min_cycle;Max_cycle;Signal;HPM_P1;HPM_P2
2023/06/21 03:03:00;;;;;;;97.03;91.05;;;20.00;99.90;;;;;;4874791;29;20215;-66
2023/06/21 03:05:35;;;;;;;79.97;74.63;;;19.90;99.90;;;;;;4877712;29;20252;-65
2023/06/21 03:08:05;;;;;;;65.93;61.42;;;19.80;99.90;;;;;;4877160;29;20188;-66
2023/06/21 03:10:36;;;;;;;41.22;38.35;;;19.80;99.90;;;;;;4855419;29;20261;-65
2023/06/21 03:13:02;;;;;;;38.05;35.17;;;19.80;99.90;;;;;;4844544;29;20220;-66
2023/06/21 03:15:28;;;;;;;22.38;19.17;;;19.80;99.90;;;;;;4889366;23;20335;-67
2023/06/21 03:17:54;;;;;;;257.63;243.48;;;19.80;99.90;;;;;;4875779;29;20450;-73
2023/06/21 03:20:22;;;;;;;422.40;397.23;;;19.80;99.90;;;;;;4874240;29;20178;-74
2023/06/21 03:22:48;;;;;;;320.42;302.05;;;19.80;99.90;;;;;;4870586;29;20486;-75
2023/06/21 03:25:15;;;;;;;298.88;281.88;;;19.80;99.90;;;;;;4838167;29;20209;-74
2023/06/21 03:27:41;;;;;;;165.77;156.00;;;19.80;99.90;;;;;;4856609;29;20233;-73
2023/06/21 03:30:12;;;;;;;179.00;167.90;;;19.80;99.90;;;;;;4857775;29;20193;-73
2023/06/21 03:32:46;;;;;;;144.63;136.32;;;19.80;99.90;;;;;;4857589;29;20197;-74
2023/06/21 03:35:14;;;;;;;137.40;128.38;;;19.90;99.90;;;;;;4857852;29;20213;-73
2023/06/21 03:37:39;;;;;;;266.67;251.57;;;19.90;99.90;;;;;;4840893;29;20221;-73
2023/06/21 03:40:08;;;;;;;255.52;241.48;;;20.00;99.90;;;;;;4857601;29;20196;-74
2023/06/21 03:42:34;;;;;;;190.93;179.98;;;20.10;99.90;;;;;;4858245;29;20276;-75
2023/06/21 03:45:00;;;;;;;84.93;79.50;;;20.20;99.90;;;;;;4857760;29;20947;-74
2023/06/21 03:47:26;;;;;;;79.15;73.88;;;20.20;99.90;;;;;;4857535;29;20193;-76
2023/06/21 03:49:57;;;;;;;736.55;690.50;;;20.30;99.90;;;;;;4856528;29;20703;-75
2023/06/21 03:52:23;;;;;;;243.13;229.60;;;20.30;99.90;;;;;;4835944;29;20193;-75
2023/06/21 03:54:49;;;;;;;76.63;71.75;;;20.40;99.90;;;;;;4857719;29;20719;-76
2023/06/21 03:57:15;;;;;;;103.93;97.47;;;20.50;99.90;;;;;;4857586;29;20220;-75
2023/06/21 03:59:41;;;;;;;441.17;415.30;;;20.50;99.90;;;;;;4857791;29;20185;-75
2023/06/21 04:02:06;;;;;;;567.55;531.17;;;20.60;99.90;;;;;;4838865;29;20189;-75
2023/06/21 04:04:32;;;;;;;533.05;499.30;;;20.70;99.90;;;;;;4845199;29;20201;-75
2023/06/21 04:06:58;;;;;;;447.27;419.90;;;20.70;99.90;;;;;;4859153;29;20276;-75
2023/06/21 04:09:24;;;;;;;172.23;161.57;;;20.80;99.90;;;;;;4846773;29;20201;-75
2023/06/21 04:11:49;;;;;;;215.60;202.73;;;20.80;99.90;;;;;;4861695;29;20690;-74
2023/06/21 04:14:15;;;;;;;230.98;218.02;;;20.80;99.90;;;;;;4861622;29;20312;-76
2023/06/21 04:16:42;;;;;;;160.57;151.18;;;20.70;99.90;;;;;;4845281;29;20618;-68
2023/06/21 04:19:08;;;;;;;139.35;130.95;;;20.70;99.90;;;;;;4861403;29;20193;-68
2023/06/21 04:21:34;;;;;;;239.65;226.90;;;20.70;99.90;;;;;;4861420;29;20209;-67
2023/06/21 04:23:59;;;;;;;229.07;216.60;;;20.70;99.90;;;;;;4862577;29;20188;-67
2023/06/21 04:26:28;;;;;;;210.73;199.15;;;20.80;99.90;;;;;;4861194;29;20657;-68
2023/06/21 04:28:54;;;;;;;111.85;105.50;;;21.00;99.90;;;;;;4842128;29;20541;-67
2023/06/21 04:31:20;;;;;;;96.20;90.45;;;21.10;99.90;;;;;;4860747;29;20253;-67
2023/06/21 04:33:46;;;;;;;257.45;242.05;;;21.10;99.90;;;;;;4861314;29;20615;-68
2023/06/21 04:36:17;;;;;;;167.70;157.77;;;21.10;99.90;;;;;;4861066;29;20203;-68
2023/06/21 04:38:48;;;;;;;104.80;97.15;;;21.00;99.90;;;;;;4860317;29;20204;-68
2023/06/21 04:41:15;;;;;;;217.23;204.40;;;21.00;99.90;;;;;;4860591;29;20197;-68
2023/06/21 04:43:42;;;;;;;552.47;518.28;;;21.00;99.90;;;;;;4860799;29;20204;-68
2023/06/21 04:46:08;;;;;;;615.50;575.22;;;21.10;99.90;;;;;;4843875;29;20669;-68
2023/06/21 04:48:37;;;;;;;806.40;754.67;;;21.10;99.90;;;;;;4864702;29;20423;-81
2023/06/21 04:51:04;;;;;;;132.43;125.10;;;21.30;99.90;;;;;;4873733;29;20189;-81
2023/06/21 04:53:30;;;;;;;39.92;37.13;;;21.50;99.90;;;;;;4848816;29;20185;-82
2023/06/21 04:55:57;;;;;;;28.02;25.55;;;21.60;99.90;;;;;;4847492;29;20759;-81
2023/06/21 04:58:26;;;;;;;27.65;25.58;;;21.60;99.90;;;;;;4872497;29;20196;-81
2023/06/21 05:00:52;;;;;;;21.17;19.38;;;21.60;99.90;;;;;;4866258;29;20193;-82
2023/06/21 05:03:18;;;;;;;31.17;29.17;;;21.70;99.90;;;;;;4864843;29;20204;-82
2023/06/21 05:05:44;;;;;;;53.05;49.22;;;21.80;99.90;;;;;;4856000;29;20225;-79
2023/06/21 05:08:09;;;;;;;64.93;60.65;;;21.90;99.90;;;;;;4868472;29;20189;-80
2023/06/21 05:10:35;;;;;;;59.47;56.00;;;22.00;99.90;;;;;;4870093;29;20641;-80
2023/06/21 05:13:01;;;;;;;37.88;34.95;;;22.00;99.90;;;;;;4847963;29;20196;-80
2023/06/21 05:15:27;;;;;;;20.13;18.33;;;22.00;99.90;;;;;;4864540;29;20602;-81
2023/06/21 05:17:52;;;;;;;30.58;28.58;;;22.10;99.90;;;;;;4863813;29;20217;-80
2023/06/21 05:20:20;;;;;;;24.40;22.15;;;22.20;99.90;;;;;;4848820;29;20193;-80
2023/06/21 05:22:46;;;;;;;23.00;21.10;;;22.50;99.90;;;;;;4847717;29;20607;-80
2023/06/21 05:25:13;;;;;;;18.77;17.05;;;22.70;99.90;;;;;;4857263;29;20312;-80
2023/06/21 05:27:38;;;;;;;28.20;26.05;;;22.90;99.90;;;;;;4850488;29;20227;-81
2023/06/21 05:30:05;;;;;;;33.80;31.60;;;23.00;99.90;;;;;;4859494;29;20235;-81
2023/06/21 05:32:31;;;;;;;33.53;31.10;;;23.10;99.90;;;;;;4868874;29;20220;-81
2023/06/21 05:34:57;;;;;;;26.70;24.42;;;23.10;99.90;;;;;;4865328;29;20267;-81
2023/06/21 05:37:23;;;;;;;18.13;16.63;;;23.30;99.90;;;;;;4851841;29;20216;-81
2023/06/21 05:39:48;;;;;;;19.98;15.65;;;23.30;99.90;;;;;;4865769;29;20288;-80
2023/06/21 05:42:14;;;;;;;18.25;16.48;;;23.20;99.90;;;;;;4849695;29;20276;-80
2023/06/21 05:44:40;;;;;;;18.55;16.63;;;23.10;99.90;;;;;;4855982;29;20220;-80
2023/06/21 05:47:06;;;;;;;17.05;15.38;;;23.00;99.90;;;;;;4860167;29;20201;-80
2023/06/21 05:49:32;;;;;;;13.88;12.77;;;23.10;99.90;;;;;;4875186;29;20673;-80
2023/06/21 05:51:59;;;;;;;13.52;12.05;;;23.10;99.90;;;;;;4863365;29;20251;-81
2023/06/21 05:54:25;;;;;;;15.00;13.45;;;23.30;99.90;;;;;;4846944;29;20221;-80
2023/06/21 05:56:52;;;;;;;25.30;23.27;;;23.30;99.90;;;;;;4863186;29;20268;-80
2023/06/21 05:59:18;;;;;;;39.55;36.85;;;23.40;99.90;;;;;;4846010;29;20531;-80
2023/06/21 06:01:43;;;;;;;35.65;33.50;;;23.60;99.90;;;;;;4846148;29;20193;-80
2023/06/21 06:04:09;;;;;;;36.85;34.38;;;23.60;99.90;;;;;;4855218;29;20216;-80
2023/06/21 06:06:40;;;;;;;38.40;35.83;;;23.70;99.90;;;;;;4845582;29;20205;-80
2023/06/21 06:09:07;;;;;;;31.95;29.77;;;23.70;99.90;;;;;;4866437;29;20205;-80
2023/06/21 06:11:33;;;;;;;27.92;25.77;;;23.70;99.90;;;;;;4857155;29;20193;-81
2023/06/21 06:13:59;;;;;;;30.23;28.00;;;23.90;99.90;;;;;;4874661;29;20224;-80
2023/06/21 06:16:25;;;;;;;44.88;42.15;;;24.00;99.90;;;;;;4846294;29;20304;-81
2023/06/21 06:18:50;;;;;;;44.72;41.72;;;24.10;99.90;;;;;;4862713;29;20190;-80
2023/06/21 06:21:21;;;;;;;45.05;42.15;;;24.00;99.90;;;;;;4862750;29;20194;-80
2023/06/21 06:23:51;;;;;;;54.28;50.95;;;24.00;99.90;;;;;;4870325;29;20200;-82
2023/06/21 06:26:26;;;;;;;60.00;56.22;;;23.90;99.90;;;;;;4870026;29;20176;-80
2023/06/21 06:28:54;;;;;;;60.60;57.08;;;24.00;99.90;;;;;;4856402;29;20203;-81
2023/06/21 06:31:22;;;;;;;44.40;41.72;;;24.30;99.90;;;;;;4864328;29;20285;-81
2023/06/21 06:33:48;;;;;;;32.15;29.92;;;24.50;99.90;;;;;;4872944;29;20584;-80
2023/06/21 06:36:14;;;;;;;41.95;39.33;;;24.70;99.90;;;;;;4847488;29;20192;-80
2023/06/21 06:38:40;;;;;;;43.42;40.47;;;24.70;99.90;;;;;;4869714;29;20216;-80
2023/06/21 06:41:06;;;;;;;46.33;43.30;;;24.40;99.90;;;;;;4854385;29;20215;-80
2023/06/21 06:43:33;;;;;;;43.85;41.08;;;24.40;99.90;;;;;;4870738;29;20196;-79
2023/06/21 06:45:59;;;;;;;83.25;78.40;;;24.70;99.90;;;;;;4856214;29;20209;-80
2023/06/21 06:48:26;;;;;;;90.68;85.95;;;24.90;99.90;;;;;;4862812;29;20200;-80
2023/06/21 06:50:51;;;;;;;72.78;68.75;;;24.80;99.90;;;;;;4846778;29;20193;-80
2023/06/21 06:53:17;;;;;;;112.97;106.80;;;25.00;99.90;;;;;;4864675;29;20584;-80
2023/06/21 06:55:43;;;;;;;100.60;95.38;;;25.20;99.90;;;;;;4862359;29;20223;-80
2023/06/21 06:58:09;;;;;;;121.70;115.38;;;25.80;99.90;;;;;;4845462;29;20311;-80
2023/06/21 07:00:35;;;;;;;33.33;30.92;;;26.40;99.90;;;;;;4846480;29;20639;-81
2023/06/21 07:03:01;;;;;;;13.63;12.43;;;27.60;99.90;;;;;;4861958;29;20193;-80
2023/06/21 07:05:27;;;;;;;10.63;9.55;;;28.60;99.90;;;;;;4862541;29;20583;-81
2023/06/21 07:07:53;;;;;;;10.07;9.02;;;29.00;99.90;;;;;;4863069;29;20197;-80
2023/06/21 07:10:20;;;;;;;10.23;8.93;;;28.40;99.90;;;;;;4862768;29;20189;-81
2023/06/21 07:12:46;;;;;;;10.20;8.90;;;28.30;99.90;;;;;;4871205;29;20596;-81
2023/06/21 07:15:11;;;;;;;14.95;13.63;;;28.60;99.90;;;;;;4862373;29;20233;-81
2023/06/21 07:17:37;;;;;;;10.20;9.23;;;28.90;99.90;;;;;;4862930;29;20220;-81
2023/06/21 07:20:06;;;;;;;9.55;8.65;;;29.10;99.90;;;;;;4845468;29;20563;-81
2023/06/21 07:22:32;;;;;;;10.48;7.68;;;28.70;99.90;;;;;;4845250;29;20193;-81
2023/06/21 07:24:58;;;;;;;10.27;9.25;;;28.80;99.90;;;;;;4872195;29;20233;-80
2023/06/21 07:27:27;;;;;;;12.55;11.57;;;29.60;99.90;;;;;;4884929;29;20201;-80
2023/06/21 07:29:53;;;;;;;13.23;12.07;;;29.60;99.90;;;;;;4865555;29;20213;-80
2023/06/21 07:32:19;;;;;;;17.17;16.10;;;29.30;99.90;;;;;;4881206;29;20226;-81
2023/06/21 07:34:45;;;;;;;23.67;22.08;;;29.40;99.90;;;;;;4867150;29;20217;-81
2023/06/21 07:37:11;;;;;;;34.78;32.58;;;29.50;99.90;;;;;;4845886;29;20220;-80
2023/06/21 07:39:37;;;;;;;71.20;67.30;;;29.90;99.90;;;;;;4861552;29;20573;-81
2023/06/21 07:42:04;;;;;;;48.42;45.47;;;30.60;99.90;;;;;;4844699;29;20275;-81
2023/06/21 07:44:31;;;;;;;14.73;13.43;;;30.90;99.40;;;;;;4872143;29;20705;-80
2023/06/21 07:46:57;;;;;;;11.30;10.38;;;31.40;98.30;;;;;;4874445;29;20623;-82
2023/06/21 07:49:23;;;;;;;13.13;12.02;;;31.40;97.70;;;;;;4861602;29;20185;-81
2023/06/21 07:51:49;;;;;;;39.60;37.42;;;31.80;97.20;;;;;;4870699;29;20189;-81
2023/06/21 07:54:15;;;;;;;48.13;45.22;;;32.30;95.40;;;;;;4866519;29;20450;-81
2023/06/21 07:56:41;;;;;;;46.83;44.25;;;31.90;95.10;;;;;;4866564;29;20220;-81
2023/06/21 07:59:07;;;;;;;26.17;24.50;;;31.50;95.40;;;;;;4863100;29;20298;-81
2023/06/21 08:01:32;;;;;;;9.82;6.32;;;30.70;96.30;;;;;;4851828;29;20286;-80
2023/06/21 08:04:00;;;;;;;7.40;6.80;;;30.30;97.50;;;;;;4874343;29;20232;-82
2023/06/21 08:06:26;;;;;;;11.57;10.40;;;30.40;97.00;;;;;;4846153;29;20196;-81
2023/06/21 08:08:52;;;;;;;12.23;11.02;;;30.30;97.30;;;;;;4848493;29;20487;-81
2023/06/21 08:11:18;;;;;;;9.68;8.93;;;30.50;96.80;;;;;;4864897;29;20196;-81
2023/06/21 08:13:44;;;;;;;27.27;25.75;;;30.50;96.30;;;;;;4850250;29;20209;-80
2023/06/21 08:16:10;;;;;;;73.18;69.35;;;30.20;97.50;;;;;;4877359;29;20241;-80
2023/06/21 08:18:36;;;;;;;53.97;51.03;;;29.60;98.10;;;;;;4878039;29;20256;-80
2023/06/21 08:21:05;;;;;;;101.43;96.40;;;29.20;96.80;;;;;;4876390;29;20200;-80
2023/06/21 08:23:31;;;;;;;97.72;92.50;;;29.20;97.30;;;;;;4862556;29;20753;-81
2023/06/21 08:25:57;;;;;;;93.13;88.47;;;29.60;97.20;;;;;;4870196;29;20216;-81
2023/06/21 08:28:23;;;;;;;51.38;48.58;;;30.10;96.90;;;;;;4861759;29;20622;-81
2023/06/21 08:30:48;;;;;;;7.13;6.53;;;30.90;96.00;;;;;;4845255;29;20221;-81
2023/06/21 08:33:14;;;;;;;9.02;7.43;;;31.40;94.80;;;;;;4862120;29;20758;-81
2023/06/21 08:35:40;;;;;;;7.95;6.85;;;31.60;95.10;;;;;;4861834;29;20245;-81
2023/06/21 08:38:07;;;;;;;8.32;6.60;;;31.50;96.10;;;;;;4861144;29;20223;-81
2023/06/21 08:40:36;;;;;;;8.73;8.02;;;31.40;96.00;;;;;;4852720;29;20200;-81
2023/06/21 08:43:01;;;;;;;9.77;8.70;;;31.30;95.10;;;;;;4861596;29;20197;-81
2023/06/21 08:45:27;;;;;;;7.97;7.28;;;30.80;95.10;;;;;;4861446;29;20233;-81
2023/06/21 08:47:54;;;;;;;119.10;112.82;;;29.70;96.20;;;;;;4844219;29;20200;-80
2023/06/21 08:50:21;;;;;;;15.65;14.48;;;28.70;98.60;;;;;;4860931;29;20210;-80
2023/06/21 08:52:49;;;;;;;14.73;13.32;;;28.00;99.90;;;;;;4861427;29;20678;-82
2023/06/21 08:55:16;;;;;;;17.08;15.48;;;27.50;99.90;;;;;;4847758;29;20244;-82
2023/06/21 08:58:06;;;;;;;11.43;7.22;;;27.10;99.90;;;;;;4863695;29;20272;-80
2023/06/21 09:00:45;;;;;;;9.68;8.80;;;26.70;99.90;;;;;;4864221;29;20197;-80
2023/06/21 09:03:35;;;;;;;195.13;185.80;;;26.30;99.90;;;;;;4864383;29;20228;-81
2023/06/21 09:06:15;;;;;;;31.65;29.58;;;25.90;99.90;;;;;;4847620;29;20308;-80
2023/06/21 09:08:43;;;;;;;7.65;6.95;;;25.60;99.90;;;;;;4852806;29;20224;-80
2023/06/21 09:11:10;;;;;;;7.18;6.57;;;25.40;99.90;;;;;;4869129;29;20189;-80
2023/06/21 09:13:37;;;;;;;16.80;15.63;;;25.10;99.90;;;;;;4869333;29;20201;-81
2023/06/21 09:16:03;;;;;;;213.98;202.88;;;24.90;99.90;;;;;;4872066;29;20225;-78
2023/06/21 09:18:35;;;;;;;64.03;60.40;;;24.70;99.90;;;;;;4856093;29;20176;-78
2023/06/21 09:21:02;;;;;;;39.65;37.05;;;24.10;99.90;;;;;;4854010;29;20264;-78
2023/06/21 09:23:29;;;;;;;242.88;228.80;;;23.20;99.90;;;;;;4864657;29;20700;-76
2023/06/21 09:25:55;;;;;;;75.50;71.30;;;22.50;99.90;;;;;;4863104;29;20224;-77
2023/06/21 09:28:22;;;;;;;203.07;191.50;;;22.00;99.90;;;;;;4869231;29;20197;-78
2023/06/21 09:30:47;;;;;;;154.85;146.30;;;21.70;99.90;;;;;;4862204;29;20208;-78
2023/06/21 09:33:13;;;;;;;186.93;175.55;;;21.50;99.90;;;;;;4848872;29;20196;-78
2023/06/21 09:35:40;;;;;;;193.57;182.15;;;21.50;99.90;;;;;;4868606;29;20225;-76
2023/06/21 09:38:26;;;;;;;240.02;226.02;;;21.40;99.90;;;;;;4860455;29;20224;-76
2023/06/21 09:40:52;;;;;;;185.88;174.68;;;21.40;99.90;;;;;;4844413;29;20220;-76
2023/06/21 09:43:21;;;;;;;138.98;130.27;;;21.30;99.90;;;;;;4861554;29;20215;-75
2023/06/21 09:46:03;;;;;;;95.25;89.55;;;21.10;99.90;;;;;;4860701;29;20221;-76
2023/06/21 09:48:31;;;;;;;62.13;58.33;;;20.90;99.90;;;;;;4860461;29;20650;-76
2023/06/21 09:50:57;;;;;;;74.22;69.35;;;20.80;99.90;;;;;;4860825;29;20193;-77
2023/06/21 09:53:26;;;;;;;121.25;114.45;;;20.60;99.90;;;;;;4861427;29;20250;-77
2023/06/21 09:55:55;;;;;;;113.70;106.88;;;20.70;99.90;;;;;;4867260;29;20708;-78
2023/06/21 09:58:22;;;;;;;199.18;187.13;;;20.70;99.90;;;;;;4852477;29;20344;-77
2023/06/21 10:00:50;;;;;;;186.68;174.63;;;20.70;99.90;;;;;;4845973;29;20260;-78
2023/06/21 10:03:16;;;;;;;123.95;116.57;;;20.80;99.90;;;;;;4861914;29;20205;-77
2023/06/21 10:06:01;;;;;;;182.57;171.93;;;20.80;99.90;;;;;;4861312;29;20213;-77
2023/06/21 10:08:29;;;;;;;232.68;218.90;;;20.70;99.90;;;;;;4860670;29;20197;-77
2023/06/21 10:10:55;;;;;;;358.98;337.48;;;20.70;99.90;;;;;;4861339;29;20276;-77
2023/06/21 10:13:28;;;;;;;286.73;269.42;;;20.60;99.90;;;;;;4846491;29;20288;-78
2023/06/21 10:15:56;;;;;;;261.38;244.85;;;20.60;99.90;;;;;;4861234;29;20235;-75
2023/06/21 10:18:22;;;;;;;246.57;231.07;;;20.60;99.90;;;;;;4860222;29;20224;-76
2023/06/21 10:21:04;;;;;;;308.42;289.55;;;20.70;99.90;;;;;;4860525;29;20189;-77
2023/06/21 10:23:34;;;;;;;237.25;222.85;;;20.70;99.90;;;;;;4860462;29;20197;-78
2023/06/21 10:26:04;;;;;;;193.68;181.60;;;20.60;99.90;;;;;;4860434;29;20292;-76
2023/06/21 10:28:35;;;;;;;308.60;289.42;;;20.60;99.90;;;;;;4860081;29;20201;-78
2023/06/21 10:31:03;;;;;;;341.08;320.15;;;20.50;99.90;;;;;;4860606;29;20248;-77
2023/06/21 10:33:30;;;;;;;278.08;261.67;;;20.50;99.90;;;;;;4868402;29;20193;-77
2023/06/21 10:35:59;;;;;;;268.85;253.13;;;20.50;99.90;;;;;;4860895;29;20224;-77
2023/06/21 10:38:34;;;;;;;235.50;221.85;;;20.40;99.90;;;;;;4860420;29;20221;-77
2023/06/21 10:41:02;;;;;;;149.32;139.20;;;20.40;99.90;;;;;;4861161;29;20196;-78
2023/06/21 10:43:29;;;;;;;205.68;193.63;;;20.40;99.90;;;;;;4872388;29;20189;-77
2023/06/21 10:45:57;;;;;;;258.45;243.00;;;20.50;99.90;;;;;;4879940;29;20208;-77
2023/06/21 10:48:24;;;;;;;217.80;204.63;;;20.50;99.90;;;;;;4879682;29;20189;-78
2023/06/21 10:50:51;;;;;;;235.35;222.52;;;20.60;99.90;;;;;;4875240;29;20216;-78
2023/06/21 10:53:18;;;;;;;195.30;184.93;;;20.70;99.90;;;;;;4868947;29;20195;-78
2023/06/21 10:55:46;;;;;;;179.80;169.45;;;20.70;99.90;;;;;;4871276;29;20220;-78
2023/06/21 10:58:13;;;;;;;164.95;155.32;;;20.80;99.90;;;;;;4870965;29;20249;-78
2023/06/21 11:00:42;;;;;;;246.82;232.00;;;21.10;99.90;;;;;;4866809;29;20193;-79
2023/06/21 11:03:12;;;;;;;221.77;208.25;;;21.20;99.90;;;;;;4874213;29;20275;-79
2023/06/21 11:05:39;;;;;;;159.20;148.15;;;21.40;99.90;;;;;;4849794;29;20284;-79
2023/06/21 11:08:06;;;;;;;218.90;204.57;;;21.50;99.90;;;;;;4865939;29;20708;-79
2023/06/21 11:10:49;;;;;;;314.20;294.35;;;21.60;99.90;;;;;;4870150;29;20203;-79
2023/06/21 11:13:17;;;;;;;143.93;135.23;;;21.60;99.90;;;;;;4850458;29;20205;-79
2023/06/21 11:15:45;;;;;;;72.65;68.07;;;21.70;99.90;;;;;;4865636;29;20233;-80
2023/06/21 11:18:18;;;;;;;53.05;49.25;;;21.60;99.90;;;;;;4865971;29;20240;-80
2023/06/21 11:20:49;;;;;;;57.00;52.50;;;21.60;99.90;;;;;;4849029;29;20206;-79
2023/06/21 11:23:17;;;;;;;70.97;66.35;;;21.70;99.90;;;;;;4865846;29;20670;-79
2023/06/21 11:25:53;;;;;;;246.68;232.20;;;21.70;99.90;;;;;;4849464;29;20612;-80
2023/06/21 11:28:19;;;;;;;33.42;30.70;;;21.90;99.90;;;;;;4849337;29;20568;-79
2023/06/21 11:31:03;;;;;;;283.05;266.20;;;22.10;99.90;;;;;;4869182;29;20196;-80
2023/06/21 11:33:30;;;;;;;439.40;413.58;;;22.40;99.90;;;;;;4868422;29;20252;-80
2023/06/21 11:36:06;;;;;;;226.55;213.80;;;22.90;99.90;;;;;;4875180;29;20220;-80
2023/06/21 11:38:34;;;;;;;69.43;65.10;;;23.50;99.90;;;;;;4852871;29;20216;-80
2023/06/21 11:41:01;;;;;;;68.30;63.40;;;24.10;99.90;;;;;;4875660;29;20204;-80
2023/06/21 11:43:27;;;;;;;184.25;173.73;;;24.80;99.90;;;;;;4871206;29;20296;-81
2023/06/21 11:46:02;;;;;;;129.57;122.25;;;25.30;99.90;;;;;;4865689;29;20224;-80
2023/06/21 11:48:31;;;;;;;20.27;15.95;;;25.90;99.90;;;;;;4855291;29;20200;-81
2023/06/21 11:51:08;;;;;;;34.38;32.03;;;27.00;99.90;;;;;;4871304;29;20196;-80
2023/06/21 11:53:43;;;;;;;21.52;19.73;;;28.20;99.90;;;;;;4860868;29;20290;-81
2023/06/21 11:56:13;;;;;;;26.63;24.73;;;28.90;99.90;;;;;;4859856;29;20192;-78
2023/06/21 11:58:39;;;;;;;68.35;64.60;;;29.40;99.90;;;;;;4861022;29;20217;-78
2023/06/21 12:01:07;;;;;;;41.25;38.72;;;29.40;99.90;;;;;;4843110;29;20189;-78
2023/06/21 12:03:32;;;;;;;64.72;60.97;;;29.30;99.90;;;;;;4860648;29;20193;-78
2023/06/21 12:05:59;;;;;;;16.88;15.32;;;29.10;99.90;;;;;;4859887;29;20690;-78
2023/06/21 12:08:30;;;;;;;12.02;10.15;;;29.10;99.90;;;;;;4859742;29;20325;-80
2023/06/21 12:11:04;;;;;;;12.13;11.10;;;29.00;99.90;;;;;;4862148;29;20666;-81
2023/06/21 12:13:32;;;;;;;11.68;10.68;;;29.10;99.90;;;;;;4865663;29;20204;-78
2023/06/21 12:16:00;;;;;;;13.95;12.75;;;29.20;99.90;;;;;;4859006;29;20227;-78
2023/06/21 12:18:28;;;;;;;31.77;29.52;;;29.50;99.90;;;;;;4858887;29;20229;-78
2023/06/21 12:20:54;;;;;;;38.00;35.47;;;30.20;99.90;;;;;;4859255;29;20193;-78
2023/06/21 12:23:21;;;;;;;29.60;27.65;;;30.60;99.90;;;;;;4859256;29;20220;-78
2023/06/21 12:25:51;;;;;;;15.95;14.13;;;31.40;99.90;;;;;;4842642;29;20216;-78
2023/06/21 12:28:19;;;;;;;16.90;15.55;;;32.10;99.90;;;;;;4860961;29;20193;-77
2023/06/21 12:30:47;;;;;;;19.02;17.45;;;32.30;99.90;;;;;;4871161;29;20218;-78
2023/06/21 12:33:14;;;;;;;22.52;20.95;;;33.10;99.90;;;;;;4847110;29;20292;-78
2023/06/21 12:35:40;;;;;;;54.25;50.78;;;32.80;99.90;;;;;;4862927;29;20217;-78
2023/06/21 12:38:19;;;;;;;50.00;46.95;;;32.60;99.90;;;;;;4862399;29;20228;-78
2023/06/21 12:40:59;;;;;;;16.05;14.60;;;32.80;99.90;;;;;;4863225;29;20239;-78
2023/06/21 12:43:41;;;;;;;21.48;19.77;;;33.30;99.90;;;;;;4870896;29;20265;-77
2023/06/21 12:46:08;;;;;;;34.90;32.72;;;33.60;99.90;;;;;;4863979;29;20682;-80
2023/06/21 12:48:36;;;;;;;23.35;21.65;;;33.10;99.90;;;;;;4862210;29;20189;-78
2023/06/21 12:51:02;;;;;;;17.25;13.68;;;32.10;99.90;;;;;;4863100;29;20666;-79
2023/06/21 12:53:30;;;;;;;11.23;10.23;;;32.40;99.90;;;;;;4846438;29;20193;-79
2023/06/21 12:56:08;;;;;;;13.60;12.05;;;32.30;99.90;;;;;;4862448;29;20312;-79
2023/06/21 12:58:34;;;;;;;18.45;17.00;;;33.00;99.90;;;;;;4862557;29;20656;-79
2023/06/21 13:01:01;;;;;;;76.22;72.07;;;33.00;99.90;;;;;;4862633;29;20220;-79
2023/06/21 13:03:29;;;;;;;85.38;80.70;;;33.60;99.80;;;;;;4862463;29;20191;-79
2023/06/21 13:05:55;;;;;;;100.60;95.40;;;33.30;99.80;;;;;;4845660;29;20245;-79
2023/06/21 13:08:21;;;;;;;117.38;111.50;;;33.00;99.70;;;;;;4845817;29;20205;-79
2023/06/21 13:10:46;;;;;;;72.32;68.47;;;33.10;99.40;;;;;;4847895;29;20611;-78
2023/06/21 13:13:12;;;;;;;24.15;22.15;;;32.50;99.90;;;;;;4869570;29;20204;-78
2023/06/21 13:15:38;;;;;;;20.35;19.00;;;31.70;99.90;;;;;;4868316;29;20351;-78
2023/06/21 13:18:04;;;;;;;29.42;27.13;;;31.50;99.90;;;;;;4866551;29;20232;-78
2023/06/21 13:20:36;;;;;;;17.60;16.40;;;31.70;99.90;;;;;;4862444;29;20199;-79
2023/06/21 13:23:02;;;;;;;94.22;89.28;;;32.70;99.90;;;;;;4862669;29;20196;-79
2023/06/21 13:25:28;;;;;;;35.30;32.72;;;33.80;96.80;;;;;;4851527;29;20264;-78
2023/06/21 13:27:54;;;;;;;26.00;24.20;;;34.50;95.70;;;;;;4846538;29;20215;-77
2023/06/21 13:30:20;;;;;;;19.42;17.88;;;34.60;95.80;;;;;;4845545;29;20283;-78
2023/06/21 13:32:46;;;;;;;27.50;25.67;;;34.80;95.40;;;;;;4861897;29;20193;-77
2023/06/21 13:35:12;;;;;;;25.17;23.67;;;34.80;94.90;;;;;;4861356;29;20286;-77
2023/06/21 13:37:37;;;;;;;17.90;16.40;;;34.90;94.50;;;;;;4861004;29;20273;-79
2023/06/21 13:40:05;;;;;;;12.60;9.82;;;34.80;93.60;;;;;;4860476;29;20280;-78
2023/06/21 13:42:31;;;;;;;9.50;8.70;;;34.90;91.10;;;;;;4862209;29;20213;-78
2023/06/21 13:44:57;;;;;;;12.73;11.02;;;34.80;91.00;;;;;;4845080;29;20213;-78
2023/06/21 13:47:22;;;;;;;17.13;15.85;;;34.90;92.30;;;;;;4861551;29;20200;-78
2023/06/21 13:49:48;;;;;;;18.30;17.00;;;33.90;92.90;;;;;;4861938;29;20193;-78
2023/06/21 13:52:15;;;;;;;49.88;47.00;;;32.40;94.50;;;;;;4862016;29;20207;-78
2023/06/21 13:54:42;;;;;;;124.85;118.32;;;31.50;96.60;;;;;;4861615;29;20213;-78
2023/06/21 13:57:14;;;;;;;29.63;27.65;;;31.00;96.40;;;;;;4861517;29;20721;-78
2023/06/21 13:59:44;;;;;;;32.67;30.52;;;31.30;98.20;;;;;;4861556;29;20189;-78
2023/06/21 14:02:10;;;;;;;98.72;93.65;;;31.40;97.30;;;;;;4849364;29;20196;-77
2023/06/21 14:04:37;;;;;;;121.80;115.38;;;32.70;96.20;;;;;;4863873;29;20718;-77
2023/06/21 14:07:03;;;;;;;16.25;14.85;;;33.70;94.40;;;;;;4863040;29;20204;-78
2023/06/21 14:09:29;;;;;;;13.52;11.77;;;34.30;92.70;;;;;;4868242;29;20201;-78
2023/06/21 14:11:58;;;;;;;11.88;10.77;;;35.40;92.20;;;;;;4866640;29;20617;-78
2023/06/21 14:14:24;;;;;;;11.88;10.48;;;35.60;90.30;;;;;;4848312;29;20225;-77
2023/06/21 14:16:50;;;;;;;20.63;19.20;;;35.10;91.00;;;;;;4848326;29;20247;-78
2023/06/21 14:19:16;;;;;;;27.23;25.10;;;34.10;91.80;;;;;;4845891;29;20197;-78
2023/06/21 14:21:44;;;;;;;14.75;13.45;;;33.10;93.30;;;;;;4862318;29;20189;-78
2023/06/21 14:24:10;;;;;;;14.48;13.48;;;33.50;93.00;;;;;;4845306;29;20229;-78
2023/06/21 14:26:36;;;;;;;13.07;11.77;;;34.30;92.40;;;;;;4861642;29;20208;-78
2023/06/21 14:29:03;;;;;;;10.52;9.02;;;35.20;91.40;;;;;;4844719;29;20794;-78
2023/06/21 14:31:31;;;;;;;8.95;8.05;;;35.50;90.00;;;;;;4861551;29;20201;-78
2023/06/21 14:34:01;;;;;;;10.02;9.13;;;35.00;89.80;;;;;;4861744;29;20193;-78
2023/06/21 14:36:27;;;;;;;9.23;8.35;;;35.20;88.20;;;;;;4861068;29;20571;-78
2023/06/21 14:38:52;;;;;;;10.68;9.88;;;35.00;87.80;;;;;;4861353;29;20196;-77
2023/06/21 14:41:18;;;;;;;8.70;7.90;;;34.60;89.30;;;;;;4844981;29;20754;-78
2023/06/21 14:43:44;;;;;;;17.17;15.65;;;34.10;90.10;;;;;;4869346;29;20254;-77
2023/06/21 14:46:11;;;;;;;14.05;12.75;;;33.00;91.10;;;;;;4861966;29;20356;-78
2023/06/21 14:48:37;;;;;;;13.52;12.05;;;32.90;91.50;;;;;;4844265;29;20232;-77
2023/06/21 14:51:14;;;;;;;12.98;12.02;;;33.10;91.80;;;;;;4844433;29;20207;-78
2023/06/21 14:53:40;;;;;;;16.17;15.02;;;33.20;89.80;;;;;;4861422;29;20192;-78
2023/06/21 14:56:06;;;;;;;12.75;11.77;;;33.20;91.20;;;;;;4861039;29;20720;-78
2023/06/21 14:58:33;;;;;;;14.57;13.18;;;32.70;91.90;;;;;;4861140;29;20220;-79
2023/06/21 15:00:59;;;;;;;45.60;42.88;;;32.10;92.30;;;;;;4862018;29;20221;-79
2023/06/21 15:03:24;;;;;;;90.93;86.15;;;31.50;93.10;;;;;;4846135;29;20189;-77
2023/06/21 15:05:50;;;;;;;54.47;51.42;;;31.30;93.60;;;;;;4860020;29;20652;-77
2023/06/21 15:08:17;;;;;;;39.47;37.20;;;31.10;93.70;;;;;;4842880;29;20252;-77
2023/06/21 15:10:43;;;;;;;13.02;10.15;;;30.70;93.80;;;;;;4859729;29;20284;-80
2023/06/21 15:13:09;;;;;;;11.32;9.93;;;30.50;94.80;;;;;;4860129;29;20685;-77
2023/06/21 15:15:34;;;;;;;10.65;9.65;;;30.10;95.30;;;;;;4862716;29;20232;-79
2023/06/21 15:18:01;;;;;;;10.60;9.50;;;30.20;95.70;;;;;;4862056;29;20232;-79
2023/06/21 15:20:26;;;;;;;15.63;10.45;;;30.10;95.00;;;;;;4862242;29;20189;-79
2023/06/21 15:22:52;;;;;;;12.15;10.95;;;30.10;95.70;;;;;;4869907;29;20244;-79
2023/06/21 15:25:18;;;;;;;12.43;11.32;;;30.30;96.00;;;;;;4856458;29;20596;-79
2023/06/21 15:27:44;;;;;;;52.58;49.65;;;31.30;95.30;;;;;;4862937;29;20199;-80